sensor_id;sensor_type;location;lat;lon;timestamp;temperature;humidity
42245;DHT22;27912;51.828;5.688;2022-10-16T00:00:37;12.30;99.90
42245;DHT22;27912;51.828;5.688;2022-10-16T00:03:03;12.30;99.90
42245;DHT22;27912;51.828;5.688;2022-10-16T00:05:29;12.30;99.90
42245;DHT22;27912;51.828;5.688;2022-10-16T00:07:55;12.30;99.90
42245;DHT22;27912;51.828;5.688;2022-10-16T00:10:21;12.20;99.90
42245;DHT22;27912;51.828;5.688;2022-10-16T00:12:47;12.20;99.90
42245;DHT22;27912;51.828;5.688;2022-10-16T00:15:12;12.20;99.90
42245;DHT22;27912;51.828;5.688;2022-10-16T00:17:38;12.20;99.90
42245;DHT22;27912;51.828;5.688;2022-10-16T00:20:04;12.20;99.90
42245;DHT22;27912;51.828;5.688;2022-10-16T00:22:29;12.20;99.90
42245;DHT22;27912;51.828;5.688;2022-10-16T00:24:55;12.10;99.90
42245;DHT22;27912;51.828;5.688;2022-10-16T00:27:21;12.10;99.90
42245;DHT22;27912;51.828;5.688;2022-10-16T00:29:50;12.10;99.90
42245;DHT22;27912;51.828;5.688;2022-10-16T00:32:17;12.10;99.90
42245;DHT22;27912;51.828;5.688;2022-10-16T00:34:43;12.10;99.90
42245;DHT22;27912;51.828;5.688;2022-10-16T00:37:09;12.10;99.90
42245;DHT22;27912;51.828;5.688;2022-10-16T00:39:34;12.10;99.90
42245;DHT22;27912;51.828;5.688;2022-10-16T00:42:00;12.00;99.90
42245;DHT22;27912;51.828;5.688;2022-10-16T00:44:55;12.00;99.90
42245;DHT22;27912;51.828;5.688;2022-10-16T00:47:34;12.00;99.90
42245;DHT22;27912;51.828;5.688;2022-10-16T00:50:28;12.00;99.90
42245;DHT22;27912;51.828;5.688;2022-10-16T00:52:55;12.00;99.90
42245;DHT22;27912;51.828;5.688;2022-10-16T00:55:21;11.90;99.90
42245;DHT22;27912;51.828;5.688;2022-10-16T00:57:48;11.90;99.90
42245;DHT22;27912;51.828;5.688;2022-10-16T01:00:20;11.90;99.90
42245;DHT22;27912;51.828;5.688;2022-10-16T01:03:01;11.90;99.90
42245;DHT22;27912;51.828;5.688;2022-10-16T01:05:35;11.90;99.90
42245;DHT22;27912;51.828;5.688;2022-10-16T01:08:17;11.90;99.90
42245;DHT22;27912;51.828;5.688;2022-10-16T01:11:12;11.90;99.90
42245;DHT22;27912;51.828;5.688;2022-10-16T01:13:42;11.90;99.90
42245;DHT22;27912;51.828;5.688;2022-10-16T01:16:20;11.90;99.90
42245;DHT22;27912;51.828;5.688;2022-10-16T01:18:54;12.00;99.90
42245;DHT22;27912;51.828;5.688;2022-10-16T01:21:29;12.00;99.90
42245;DHT22;27912;51.828;5.688;2022-10-16T01:24:16;12.10;99.90
42245;DHT22;27912;51.828;5.688;2022-10-16T01:26:56;12.20;99.90
42245;DHT22;27912;51.828;5.688;2022-10-16T01:29:34;12.20;99.90
42245;DHT22;27912;51.828;5.688;2022-10-16T01:32:49;12.20;99.90
42245;DHT22;27912;51.828;5.688;2022-10-16T01:34:58;12.20;99.90
42245;DHT22;27912;51.828;5.688;2022-10-16T01:37:52;12.20;99.90
42245;DHT22;27912;51.828;5.688;2022-10-16T01:40:20;12.20;99.90
42245;DHT22;27912;51.828;5.688;2022-10-16T01:43:08;12.20;99.90
42245;DHT22;27912;51.828;5.688;2022-10-16T01:45:36;12.20;99.90
42245;DHT22;27912;51.828;5.688;2022-10-16T01:48:04;12.30;99.90
42245;DHT22;27912;51.828;5.688;2022-10-16T01:50:37;12.30;99.90
42245;DHT22;27912;51.828;5.688;2022-10-16T01:53:05;12.30;99.90
42245;DHT22;27912;51.828;5.688;2022-10-16T01:55:36;12.30;99.90
42245;DHT22;27912;51.828;5.688;2022-10-16T01:58:04;12.30;99.90
42245;DHT22;27912;51.828;5.688;2022-10-16T02:00:32;12.30;99.90
42245;DHT22;27912;51.828;5.688;2022-10-16T02:02:58;12.30;99.90
42245;DHT22;27912;51.828;5.688;2022-10-16T02:05:45;12.40;99.90
42245;DHT22;27912;51.828;5.688;2022-10-16T02:08:12;12.40;99.90
42245;DHT22;27912;51.828;5.688;2022-10-16T02:10:38;12.40;99.90
42245;DHT22;27912;51.828;5.688;2022-10-16T02:13:09;12.50;99.90
42245;DHT22;27912;51.828;5.688;2022-10-16T02:15:35;12.50;99.90
42245;DHT22;27912;51.828;5.688;2022-10-16T02:18:03;12.50;99.90
42245;DHT22;27912;51.828;5.688;2022-10-16T02:20:33;12.50;99.90
42245;DHT22;27912;51.828;5.688;2022-10-16T02:23:01;12.50;99.90
42245;DHT22;27912;51.828;5.688;2022-10-16T02:25:32;12.50;99.90
42245;DHT22;27912;51.828;5.688;2022-10-16T02:28:07;12.50;99.90
42245;DHT22;27912;51.828;5.688;2022-10-16T02:30:49;12.50;99.90
42245;DHT22;27912;51.828;5.688;2022-10-16T02:33:16;12.60;99.90
42245;DHT22;27912;51.828;5.688;2022-10-16T02:35:45;12.50;99.90
42245;DHT22;27912;51.828;5.688;2022-10-16T02:38:12;12.50;99.90
42245;DHT22;27912;51.828;5.688;2022-10-16T02:40:39;12.50;99.90
42245;DHT22;27912;51.828;5.688;2022-10-16T02:43:05;12.50;99.90
42245;DHT22;27912;51.828;5.688;2022-10-16T02:45:32;12.50;99.90
42245;DHT22;27912;51.828;5.688;2022-10-16T02:47:57;12.40;99.90
42245;DHT22;27912;51.828;5.688;2022-10-16T02:50:23;12.40;99.90
42245;DHT22;27912;51.828;5.688;2022-10-16T02:52:50;12.40;99.90
42245;DHT22;27912;51.828;5.688;2022-10-16T02:55:16;12.30;99.90
42245;DHT22;27912;51.828;5.688;2022-10-16T02:57:41;12.30;99.90
42245;DHT22;27912;51.828;5.688;2022-10-16T03:00:14;12.30;99.90
42245;DHT22;27912;51.828;5.688;2022-10-16T03:02:40;12.30;99.90
42245;DHT22;27912;51.828;5.688;2022-10-16T03:05:06;12.20;99.90
42245;DHT22;27912;51.828;5.688;2022-10-16T03:07:32;12.20;99.90
42245;DHT22;27912;51.828;5.688;2022-10-16T03:09:57;12.20;99.90
42245;DHT22;27912;51.828;5.688;2022-10-16T03:12:28;12.10;99.90
42245;DHT22;27912;51.828;5.688;2022-10-16T03:14:54;12.20;99.90
42245;DHT22;27912;51.828;5.688;2022-10-16T03:17:20;12.10;99.90
42245;DHT22;27912;51.828;5.688;2022-10-16T03:19:46;12.10;99.90
42245;DHT22;27912;51.828;5.688;2022-10-16T03:22:11;12.10;99.90
42245;DHT22;27912;51.828;5.688;2022-10-16T03:24:37;12.10;99.90
42245;DHT22;27912;51.828;5.688;2022-10-16T03:27:02;12.10;99.90
42245;DHT22;27912;51.828;5.688;2022-10-16T03:29:28;12.20;99.90
42245;DHT22;27912;51.828;5.688;2022-10-16T03:31:55;12.10;99.90
42245;DHT22;27912;51.828;5.688;2022-10-16T03:34:20;12.20;99.90
42245;DHT22;27912;51.828;5.688;2022-10-16T03:36:46;12.10;99.90
42245;DHT22;27912;51.828;5.688;2022-10-16T03:39:11;12.10;99.90
42245;DHT22;27912;51.828;5.688;2022-10-16T03:41:37;12.20;99.90
42245;DHT22;27912;51.828;5.688;2022-10-16T03:44:02;12.10;99.90
42245;DHT22;27912;51.828;5.688;2022-10-16T03:46:28;12.20;99.90
42245;DHT22;27912;51.828;5.688;2022-10-16T03:48:54;12.10;99.90
42245;DHT22;27912;51.828;5.688;2022-10-16T03:51:20;12.10;99.90
42245;DHT22;27912;51.828;5.688;2022-10-16T03:53:45;12.20;99.90
42245;DHT22;27912;51.828;5.688;2022-10-16T03:56:11;12.20;99.90
42245;DHT22;27912;51.828;5.688;2022-10-16T03:58:36;12.10;99.90
42245;DHT22;27912;51.828;5.688;2022-10-16T04:01:02;12.10;99.90
42245;DHT22;27912;51.828;5.688;2022-10-16T04:03:28;12.10;99.90
42245;DHT22;27912;51.828;5.688;2022-10-16T04:05:53;12.10;99.90
42245;DHT22;27912;51.828;5.688;2022-10-16T04:08:19;12.10;99.90
42245;DHT22;27912;51.828;5.688;2022-10-16T04:10:44;12.10;99.90
42245;DHT22;27912;51.828;5.688;2022-10-16T04:13:11;12.10;99.90
42245;DHT22;27912;51.828;5.688;2022-10-16T04:15:36;12.00;99.90
42245;DHT22;27912;51.828;5.688;2022-10-16T04:18:02;12.00;99.90
42245;DHT22;27912;51.828;5.688;2022-10-16T04:20:28;12.00;99.90
42245;DHT22;27912;51.828;5.688;2022-10-16T04:22:54;12.00;99.90
42245;DHT22;27912;51.828;5.688;2022-10-16T04:25:19;12.00;99.90
42245;DHT22;27912;51.828;5.688;2022-10-16T04:27:45;12.00;99.90
42245;DHT22;27912;51.828;5.688;2022-10-16T04:30:10;12.00;99.90
42245;DHT22;27912;51.828;5.688;2022-10-16T04:32:36;12.00;99.90
42245;DHT22;27912;51.828;5.688;2022-10-16T04:35:01;12.00;99.90
42245;DHT22;27912;51.828;5.688;2022-10-16T04:37:28;11.90;99.90
42245;DHT22;27912;51.828;5.688;2022-10-16T04:39:53;11.90;99.90
42245;DHT22;27912;51.828;5.688;2022-10-16T04:42:20;11.90;99.90
42245;DHT22;27912;51.828;5.688;2022-10-16T04:44:46;11.90;99.90
42245;DHT22;27912;51.828;5.688;2022-10-16T04:47:11;11.90;99.90
42245;DHT22;27912;51.828;5.688;2022-10-16T04:49:37;11.90;99.90
42245;DHT22;27912;51.828;5.688;2022-10-16T04:52:03;11.90;99.90
42245;DHT22;27912;51.828;5.688;2022-10-16T04:54:28;11.80;99.90
42245;DHT22;27912;51.828;5.688;2022-10-16T04:56:54;11.80;99.90
42245;DHT22;27912;51.828;5.688;2022-10-16T04:59:20;11.80;99.90
42245;DHT22;27912;51.828;5.688;2022-10-16T05:01:46;11.80;99.90
42245;DHT22;27912;51.828;5.688;2022-10-16T05:04:12;11.80;99.90
42245;DHT22;27912;51.828;5.688;2022-10-16T05:06:38;11.80;99.90
42245;DHT22;27912;51.828;5.688;2022-10-16T05:09:04;11.70;99.90
42245;DHT22;27912;51.828;5.688;2022-10-16T05:11:30;11.70;99.90
42245;DHT22;27912;51.828;5.688;2022-10-16T05:13:56;11.70;99.90
42245;DHT22;27912;51.828;5.688;2022-10-16T05:16:21;11.70;99.90
42245;DHT22;27912;51.828;5.688;2022-10-16T05:18:47;11.60;99.90
42245;DHT22;27912;51.828;5.688;2022-10-16T05:21:12;11.70;99.90
42245;DHT22;27912;51.828;5.688;2022-10-16T05:23:38;11.60;99.90
42245;DHT22;27912;51.828;5.688;2022-10-16T05:26:03;11.60;99.90
42245;DHT22;27912;51.828;5.688;2022-10-16T05:28:30;11.60;99.90
42245;DHT22;27912;51.828;5.688;2022-10-16T05:30:56;11.60;99.90
42245;DHT22;27912;51.828;5.688;2022-10-16T05:33:24;11.50;99.90
42245;DHT22;27912;51.828;5.688;2022-10-16T05:35:50;11.50;99.90
42245;DHT22;27912;51.828;5.688;2022-10-16T05:38:17;11.50;99.90
42245;DHT22;27912;51.828;5.688;2022-10-16T05:40:43;11.50;99.90
42245;DHT22;27912;51.828;5.688;2022-10-16T05:43:09;11.40;99.90
42245;DHT22;27912;51.828;5.688;2022-10-16T05:45:34;11.40;99.90
42245;DHT22;27912;51.828;5.688;2022-10-16T05:48:00;11.40;99.90
42245;DHT22;27912;51.828;5.688;2022-10-16T05:50:27;11.40;99.90
42245;DHT22;27912;51.828;5.688;2022-10-16T05:52:52;11.30;99.90
42245;DHT22;27912;51.828;5.688;2022-10-16T05:55:18;11.30;99.90
42245;DHT22;27912;51.828;5.688;2022-10-16T05:57:43;11.30;99.90
42245;DHT22;27912;51.828;5.688;2022-10-16T06:00:10;11.30;99.90
42245;DHT22;27912;51.828;5.688;2022-10-16T06:02:35;11.20;99.90
42245;DHT22;27912;51.828;5.688;2022-10-16T06:05:01;11.20;99.90
42245;DHT22;27912;51.828;5.688;2022-10-16T06:07:27;11.20;99.90
42245;DHT22;27912;51.828;5.688;2022-10-16T06:09:53;11.20;99.90
42245;DHT22;27912;51.828;5.688;2022-10-16T06:12:19;11.20;99.90
42245;DHT22;27912;51.828;5.688;2022-10-16T06:14:45;11.20;99.90
42245;DHT22;27912;51.828;5.688;2022-10-16T06:17:15;11.20;99.90
42245;DHT22;27912;51.828;5.688;2022-10-16T06:19:41;11.20;99.90
42245;DHT22;27912;51.828;5.688;2022-10-16T06:22:07;11.30;99.90
42245;DHT22;27912;51.828;5.688;2022-10-16T06:24:32;11.30;99.90
42245;DHT22;27912;51.828;5.688;2022-10-16T06:26:58;11.40;99.90
42245;DHT22;27912;51.828;5.688;2022-10-16T06:29:23;11.40;99.90
42245;DHT22;27912;51.828;5.688;2022-10-16T06:31:49;11.50;99.90
42245;DHT22;27912;51.828;5.688;2022-10-16T06:34:14;11.60;99.90
42245;DHT22;27912;51.828;5.688;2022-10-16T06:36:40;11.60;99.90
42245;DHT22;27912;51.828;5.688;2022-10-16T06:39:08;11.70;99.90
42245;DHT22;27912;51.828;5.688;2022-10-16T06:41:34;11.80;99.90
42245;DHT22;27912;51.828;5.688;2022-10-16T06:44:00;11.90;99.90
42245;DHT22;27912;51.828;5.688;2022-10-16T06:46:26;12.00;99.90
42245;DHT22;27912;51.828;5.688;2022-10-16T06:48:53;12.00;99.90
42245;DHT22;27912;51.828;5.688;2022-10-16T06:51:25;12.10;99.90
42245;DHT22;27912;51.828;5.688;2022-10-16T06:53:53;12.30;99.90
42245;DHT22;27912;51.828;5.688;2022-10-16T06:56:24;12.30;99.90
42245;DHT22;27912;51.828;5.688;2022-10-16T06:58:51;12.40;99.90
42245;DHT22;27912;51.828;5.688;2022-10-16T07:01:19;12.50;99.90
42245;DHT22;27912;51.828;5.688;2022-10-16T07:03:45;12.60;99.90
42245;DHT22;27912;51.828;5.688;2022-10-16T07:06:13;12.70;99.90
42245;DHT22;27912;51.828;5.688;2022-10-16T07:08:41;12.80;99.90
42245;DHT22;27912;51.828;5.688;2022-10-16T07:11:09;12.90;99.90
42245;DHT22;27912;51.828;5.688;2022-10-16T07:13:37;13.00;99.90
42245;DHT22;27912;51.828;5.688;2022-10-16T07:16:07;13.10;99.90
42245;DHT22;27912;51.828;5.688;2022-10-16T07:18:34;13.10;99.90
42245;DHT22;27912;51.828;5.688;2022-10-16T07:21:08;13.20;99.90
42245;DHT22;27912;51.828;5.688;2022-10-16T07:23:33;13.20;99.90
42245;DHT22;27912;51.828;5.688;2022-10-16T07:25:59;13.20;99.90
42245;DHT22;27912;51.828;5.688;2022-10-16T07:28:25;13.20;99.90
42245;DHT22;27912;51.828;5.688;2022-10-16T07:30:50;13.20;99.90
42245;DHT22;27912;51.828;5.688;2022-10-16T07:33:16;13.30;99.90
42245;DHT22;27912;51.828;5.688;2022-10-16T07:35:52;13.30;99.90
42245;DHT22;27912;51.828;5.688;2022-10-16T07:38:18;13.40;99.90
42245;DHT22;27912;51.828;5.688;2022-10-16T07:40:44;13.40;99.90
42245;DHT22;27912;51.828;5.688;2022-10-16T07:43:10;13.40;99.90
42245;DHT22;27912;51.828;5.688;2022-10-16T07:45:46;13.50;99.90
42245;DHT22;27912;51.828;5.688;2022-10-16T07:48:12;13.70;99.90
42245;DHT22;27912;51.828;5.688;2022-10-16T07:50:37;13.80;99.90
42245;DHT22;27912;51.828;5.688;2022-10-16T07:53:04;13.90;99.90
42245;DHT22;27912;51.828;5.688;2022-10-16T07:55:30;13.90;99.90
42245;DHT22;27912;51.828;5.688;2022-10-16T07:57:55;13.80;99.90
42245;DHT22;27912;51.828;5.688;2022-10-16T08:00:21;13.90;99.90
42245;DHT22;27912;51.828;5.688;2022-10-16T08:02:49;14.00;99.90
42245;DHT22;27912;51.828;5.688;2022-10-16T08:05:14;14.10;99.90
42245;DHT22;27912;51.828;5.688;2022-10-16T08:07:40;14.20;99.90
42245;DHT22;27912;51.828;5.688;2022-10-16T08:10:06;14.20;99.90
42245;DHT22;27912;51.828;5.688;2022-10-16T08:12:35;14.30;99.90
42245;DHT22;27912;51.828;5.688;2022-10-16T08:15:00;14.30;99.90
42245;DHT22;27912;51.828;5.688;2022-10-16T08:17:26;14.30;99.90
42245;DHT22;27912;51.828;5.688;2022-10-16T08:19:54;14.40;99.90
42245;DHT22;27912;51.828;5.688;2022-10-16T08:22:20;14.50;99.90
42245;DHT22;27912;51.828;5.688;2022-10-16T08:24:46;14.60;99.90
42245;DHT22;27912;51.828;5.688;2022-10-16T08:27:11;14.60;99.90
42245;DHT22;27912;51.828;5.688;2022-10-16T08:29:37;14.70;99.90
42245;DHT22;27912;51.828;5.688;2022-10-16T08:32:04;14.80;99.90
42245;DHT22;27912;51.828;5.688;2022-10-16T08:34:30;14.80;99.90
42245;DHT22;27912;51.828;5.688;2022-10-16T08:36:55;14.90;99.90
42245;DHT22;27912;51.828;5.688;2022-10-16T08:39:28;14.90;99.90
42245;DHT22;27912;51.828;5.688;2022-10-16T08:44:39;15.00;99.90
42245;DHT22;27912;51.828;5.688;2022-10-16T08:47:25;15.10;99.90
42245;DHT22;27912;51.828;5.688;2022-10-16T08:50:00;15.10;99.90
42245;DHT22;27912;51.828;5.688;2022-10-16T08:52:33;15.20;99.90
42245;DHT22;27912;51.828;5.688;2022-10-16T08:55:01;15.20;99.90
42245;DHT22;27912;51.828;5.688;2022-10-16T08:57:27;15.20;99.90
42245;DHT22;27912;51.828;5.688;2022-10-16T08:59:53;15.30;99.90
42245;DHT22;27912;51.828;5.688;2022-10-16T09:02:32;15.30;99.90
42245;DHT22;27912;51.828;5.688;2022-10-16T09:05:33;15.40;99.90
42245;DHT22;27912;51.828;5.688;2022-10-16T09:08:23;15.40;99.90
42245;DHT22;27912;51.828;5.688;2022-10-16T09:11:08;15.50;99.90
42245;DHT22;27912;51.828;5.688;2022-10-16T09:13:40;15.50;99.90
42245;DHT22;27912;51.828;5.688;2022-10-16T09:21:40;15.60;99.90
42245;DHT22;27912;51.828;5.688;2022-10-16T09:24:16;15.70;99.90
42245;DHT22;27912;51.828;5.688;2022-10-16T09:26:42;15.80;99.90
42245;DHT22;27912;51.828;5.688;2022-10-16T09:29:16;15.80;99.90
42245;DHT22;27912;51.828;5.688;2022-10-16T09:31:44;16.00;99.90
42245;DHT22;27912;51.828;5.688;2022-10-16T09:34:30;16.00;99.90
42245;DHT22;27912;51.828;5.688;2022-10-16T09:37:11;16.10;99.90
42245;DHT22;27912;51.828;5.688;2022-10-16T09:39:54;16.20;99.90
42245;DHT22;27912;51.828;5.688;2022-10-16T09:42:23;16.20;99.90
42245;DHT22;27912;51.828;5.688;2022-10-16T09:44:51;16.20;99.90
42245;DHT22;27912;51.828;5.688;2022-10-16T09:47:23;16.20;99.90
42245;DHT22;27912;51.828;5.688;2022-10-16T09:50:00;16.30;99.90
42245;DHT22;27912;51.828;5.688;2022-10-16T09:52:32;16.30;99.90
42245;DHT22;27912;51.828;5.688;2022-10-16T09:55:14;16.30;99.90
42245;DHT22;27912;51.828;5.688;2022-10-16T09:57:50;16.40;99.90
42245;DHT22;27912;51.828;5.688;2022-10-16T10:00:19;16.40;99.90
42245;DHT22;27912;51.828;5.688;2022-10-16T10:02:46;16.40;99.90
42245;DHT22;27912;51.828;5.688;2022-10-16T10:05:23;16.50;99.90
42245;DHT22;27912;51.828;5.688;2022-10-16T10:07:58;16.50;99.90
42245;DHT22;27912;51.828;5.688;2022-10-16T10:10:30;16.60;99.90
42245;DHT22;27912;51.828;5.688;2022-10-16T10:12:56;16.60;99.90
42245;DHT22;27912;51.828;5.688;2022-10-16T10:15:25;16.60;99.90
42245;DHT22;27912;51.828;5.688;2022-10-16T10:17:55;16.70;99.90
42245;DHT22;27912;51.828;5.688;2022-10-16T10:20:32;16.80;99.90
42245;DHT22;27912;51.828;5.688;2022-10-16T10:23:00;16.90;99.90
42245;DHT22;27912;51.828;5.688;2022-10-16T10:29:00;17.00;99.90
42245;DHT22;27912;51.828;5.688;2022-10-16T10:31:52;17.10;99.90
42245;DHT22;27912;51.828;5.688;2022-10-16T10:34:50;17.10;99.90
42245;DHT22;27912;51.828;5.688;2022-10-16T10:45:47;17.30;99.90
42245;DHT22;27912;51.828;5.688;2022-10-16T10:51:13;17.40;99.90
42245;DHT22;27912;51.828;5.688;2022-10-16T10:53:56;17.40;99.90
42245;DHT22;27912;51.828;5.688;2022-10-16T11:02:18;17.40;99.90
42245;DHT22;27912;51.828;5.688;2022-10-16T11:08:37;17.30;99.90
42245;DHT22;27912;51.828;5.688;2022-10-16T11:10:58;17.30;99.90
42245;DHT22;27912;51.828;5.688;2022-10-16T11:13:40;17.20;99.90
42245;DHT22;27912;51.828;5.688;2022-10-16T11:16:29;17.30;99.90
42245;DHT22;27912;51.828;5.688;2022-10-16T11:19:26;17.50;99.90
42245;DHT22;27912;51.828;5.688;2022-10-16T11:22:07;17.40;99.90
42245;DHT22;27912;51.828;5.688;2022-10-16T11:27:09;17.20;99.90
42245;DHT22;27912;51.828;5.688;2022-10-16T11:29:49;17.30;99.90
42245;DHT22;27912;51.828;5.688;2022-10-16T11:33:03;17.40;99.90
42245;DHT22;27912;51.828;5.688;2022-10-16T11:36:00;17.50;99.90
42245;DHT22;27912;51.828;5.688;2022-10-16T11:41:46;17.80;99.90
42245;DHT22;27912;51.828;5.688;2022-10-16T11:47:34;17.90;99.90
42245;DHT22;27912;51.828;5.688;2022-10-16T11:55:50;18.10;99.90
42245;DHT22;27912;51.828;5.688;2022-10-16T11:58:35;18.10;99.90
42245;DHT22;27912;51.828;5.688;2022-10-16T12:04:42;18.30;99.90
42245;DHT22;27912;51.828;5.688;2022-10-16T12:07:19;18.20;99.90
42245;DHT22;27912;51.828;5.688;2022-10-16T12:09:48;18.20;99.90
42245;DHT22;27912;51.828;5.688;2022-10-16T12:12:37;18.20;99.90
42245;DHT22;27912;51.828;5.688;2022-10-16T12:15:25;18.30;99.90
42245;DHT22;27912;51.828;5.688;2022-10-16T12:17:51;18.40;99.90
42245;DHT22;27912;51.828;5.688;2022-10-16T12:22:50;18.30;99.90
42245;DHT22;27912;51.828;5.688;2022-10-16T12:25:36;18.10;99.90
42245;DHT22;27912;51.828;5.688;2022-10-16T12:28:20;18.10;99.90
42245;DHT22;27912;51.828;5.688;2022-10-16T12:31:03;18.00;99.90
42245;DHT22;27912;51.828;5.688;2022-10-16T12:33:36;18.10;99.90
42245;DHT22;27912;51.828;5.688;2022-10-16T12:36:04;18.10;99.90
42245;DHT22;27912;51.828;5.688;2022-10-16T12:38:46;18.00;99.90
42245;DHT22;27912;51.828;5.688;2022-10-16T12:41:12;18.00;99.90
42245;DHT22;27912;51.828;5.688;2022-10-16T12:43:48;17.80;99.90
42245;DHT22;27912;51.828;5.688;2022-10-16T12:46:35;17.70;99.90
42245;DHT22;27912;51.828;5.688;2022-10-16T12:54:19;17.60;99.90
42245;DHT22;27912;51.828;5.688;2022-10-16T13:00:21;17.60;99.90
42245;DHT22;27912;51.828;5.688;2022-10-16T13:06:05;17.50;99.90
42245;DHT22;27912;51.828;5.688;2022-10-16T13:11:41;17.70;99.90
42245;DHT22;27912;51.828;5.688;2022-10-16T13:17:30;18.20;99.90
42245;DHT22;27912;51.828;5.688;2022-10-16T13:20:38;18.50;99.90
42245;DHT22;27912;51.828;5.688;2022-10-16T13:28:29;18.90;99.90
42245;DHT22;27912;51.828;5.688;2022-10-16T13:31:00;19.00;99.90
42245;DHT22;27912;51.828;5.688;2022-10-16T13:33:41;19.00;99.90
42245;DHT22;27912;51.828;5.688;2022-10-16T13:38:47;19.20;99.90
42245;DHT22;27912;51.828;5.688;2022-10-16T13:41:18;19.30;99.90
42245;DHT22;27912;51.828;5.688;2022-10-16T13:43:51;19.30;99.90
42245;DHT22;27912;51.828;5.688;2022-10-16T13:46:19;19.30;99.90
42245;DHT22;27912;51.828;5.688;2022-10-16T13:48:56;19.40;99.90
42245;DHT22;27912;51.828;5.688;2022-10-16T13:51:22;19.30;99.90
42245;DHT22;27912;51.828;5.688;2022-10-16T13:53:48;19.30;99.90
42245;DHT22;27912;51.828;5.688;2022-10-16T13:56:16;19.20;99.90
42245;DHT22;27912;51.828;5.688;2022-10-16T13:58:42;19.20;99.90
42245;DHT22;27912;51.828;5.688;2022-10-16T14:01:24;19.10;99.90
42245;DHT22;27912;51.828;5.688;2022-10-16T14:03:50;19.20;99.90
42245;DHT22;27912;51.828;5.688;2022-10-16T14:06:19;19.10;99.90
42245;DHT22;27912;51.828;5.688;2022-10-16T14:09:01;19.20;99.90
42245;DHT22;27912;51.828;5.688;2022-10-16T14:11:27;19.30;99.90
42245;DHT22;27912;51.828;5.688;2022-10-16T14:13:54;19.30;99.90
42245;DHT22;27912;51.828;5.688;2022-10-16T14:16:23;19.30;99.90
42245;DHT22;27912;51.828;5.688;2022-10-16T14:19:02;19.40;99.90
42245;DHT22;27912;51.828;5.688;2022-10-16T14:21:29;19.40;99.90
42245;DHT22;27912;51.828;5.688;2022-10-16T14:23:55;19.40;99.90
42245;DHT22;27912;51.828;5.688;2022-10-16T14:26:27;19.50;99.90
42245;DHT22;27912;51.828;5.688;2022-10-16T14:29:14;19.60;99.90
42245;DHT22;27912;51.828;5.688;2022-10-16T14:31:40;19.60;99.90
42245;DHT22;27912;51.828;5.688;2022-10-16T14:34:26;19.60;99.90
42245;DHT22;27912;51.828;5.688;2022-10-16T14:36:53;19.60;99.90
42245;DHT22;27912;51.828;5.688;2022-10-16T14:39:24;19.40;99.90
42245;DHT22;27912;51.828;5.688;2022-10-16T14:41:51;19.30;99.90
42245;DHT22;27912;51.828;5.688;2022-10-16T14:44:18;19.20;99.90
42245;DHT22;27912;51.828;5.688;2022-10-16T14:46:45;19.00;99.90
42245;DHT22;27912;51.828;5.688;2022-10-16T14:51:40;18.70;99.90
42245;DHT22;27912;51.828;5.688;2022-10-16T14:54:11;18.60;99.90
42245;DHT22;27912;51.828;5.688;2022-10-16T14:56:51;18.60;99.90
42245;DHT22;27912;51.828;5.688;2022-10-16T14:59:27;18.50;99.90
42245;DHT22;27912;51.828;5.688;2022-10-16T15:01:54;18.50;99.90
42245;DHT22;27912;51.828;5.688;2022-10-16T15:04:19;18.50;99.90
42245;DHT22;27912;51.828;5.688;2022-10-16T15:06:45;18.50;99.90
42245;DHT22;27912;51.828;5.688;2022-10-16T15:09:11;18.50;99.90
42245;DHT22;27912;51.828;5.688;2022-10-16T15:11:37;18.50;99.90
42245;DHT22;27912;51.828;5.688;2022-10-16T15:14:03;18.50;99.90
42245;DHT22;27912;51.828;5.688;2022-10-16T15:16:29;18.40;99.90
42245;DHT22;27912;51.828;5.688;2022-10-16T15:18:55;18.40;99.90
42245;DHT22;27912;51.828;5.688;2022-10-16T15:21:30;18.40;99.90
42245;DHT22;27912;51.828;5.688;2022-10-16T15:23:57;18.20;99.90
42245;DHT22;27912;51.828;5.688;2022-10-16T15:26:24;18.10;99.90
42245;DHT22;27912;51.828;5.688;2022-10-16T15:28:50;18.00;99.90
42245;DHT22;27912;51.828;5.688;2022-10-16T15:31:16;17.90;99.90
42245;DHT22;27912;51.828;5.688;2022-10-16T15:33:41;17.70;99.90
42245;DHT22;27912;51.828;5.688;2022-10-16T15:36:07;17.60;99.90
42245;DHT22;27912;51.828;5.688;2022-10-16T15:38:33;17.40;99.90
42245;DHT22;27912;51.828;5.688;2022-10-16T15:40:58;17.30;99.90
42245;DHT22;27912;51.828;5.688;2022-10-16T15:43:24;17.30;99.90
42245;DHT22;27912;51.828;5.688;2022-10-16T15:48:25;17.20;99.90
42245;DHT22;27912;51.828;5.688;2022-10-16T15:50:51;17.10;99.90
42245;DHT22;27912;51.828;5.688;2022-10-16T15:53:16;17.10;99.90
42245;DHT22;27912;51.828;5.688;2022-10-16T15:55:42;17.00;99.90
42245;DHT22;27912;51.828;5.688;2022-10-16T15:58:07;17.00;99.90
42245;DHT22;27912;51.828;5.688;2022-10-16T16:00:33;16.90;99.90
42245;DHT22;27912;51.828;5.688;2022-10-16T16:02:59;16.80;99.90
42245;DHT22;27912;51.828;5.688;2022-10-16T16:05:24;16.80;99.90
42245;DHT22;27912;51.828;5.688;2022-10-16T16:07:50;16.70;99.90
42245;DHT22;27912;51.828;5.688;2022-10-16T16:10:17;16.70;99.90
42245;DHT22;27912;51.828;5.688;2022-10-16T16:12:42;16.60;99.90
42245;DHT22;27912;51.828;5.688;2022-10-16T16:15:09;16.60;99.90
42245;DHT22;27912;51.828;5.688;2022-10-16T16:17:35;16.60;99.90
42245;DHT22;27912;51.828;5.688;2022-10-16T16:20:02;16.50;99.90
42245;DHT22;27912;51.828;5.688;2022-10-16T16:22:28;16.60;99.90
42245;DHT22;27912;51.828;5.688;2022-10-16T16:24:53;16.60;99.90
42245;DHT22;27912;51.828;5.688;2022-10-16T16:27:19;16.60;99.90
42245;DHT22;27912;51.828;5.688;2022-10-16T16:29:49;16.50;99.90
42245;DHT22;27912;51.828;5.688;2022-10-16T16:32:15;16.50;99.90
42245;DHT22;27912;51.828;5.688;2022-10-16T16:34:41;16.40;99.90
42245;DHT22;27912;51.828;5.688;2022-10-16T16:37:07;16.40;99.90
42245;DHT22;27912;51.828;5.688;2022-10-16T16:39:32;16.30;99.90
42245;DHT22;27912;51.828;5.688;2022-10-16T16:41:58;16.20;99.90
42245;DHT22;27912;51.828;5.688;2022-10-16T16:44:24;16.20;99.90
42245;DHT22;27912;51.828;5.688;2022-10-16T16:46:50;16.10;99.90
42245;DHT22;27912;51.828;5.688;2022-10-16T16:49:15;16.00;99.90
42245;DHT22;27912;51.828;5.688;2022-10-16T16:51:41;15.90;99.90
42245;DHT22;27912;51.828;5.688;2022-10-16T16:54:08;15.90;99.90
42245;DHT22;27912;51.828;5.688;2022-10-16T16:56:35;15.80;99.90
42245;DHT22;27912;51.828;5.688;2022-10-16T16:59:00;15.70;99.90
42245;DHT22;27912;51.828;5.688;2022-10-16T17:01:27;15.70;99.90
42245;DHT22;27912;51.828;5.688;2022-10-16T17:03:55;15.60;99.90
42245;DHT22;27912;51.828;5.688;2022-10-16T17:06:23;15.60;99.90
42245;DHT22;27912;51.828;5.688;2022-10-16T17:08:49;15.50;99.90
42245;DHT22;27912;51.828;5.688;2022-10-16T17:11:21;15.50;99.90